createdAt,value
2023-02-24T00:00:34.088Z,2.06
2023-02-24T00:03:13.128Z,2.08
2023-02-24T00:05:43.133Z,2.11
2023-02-24T00:08:17.431Z,2.13
2023-02-24T00:10:48.178Z,2.17
2023-02-24T00:13:22.626Z,2.20
2023-02-24T00:16:03.864Z,2.23
2023-02-24T00:18:32.979Z,2.26
2023-02-24T00:21:14.006Z,2.28
2023-02-24T00:23:40.411Z,2.31
2023-02-24T00:26:07.828Z,2.33
2023-02-24T00:28:34.557Z,2.34
2023-02-24T00:31:15.642Z,2.36
2023-02-24T00:33:51.258Z,2.37
2023-02-24T00:36:37.272Z,2.40
2023-02-24T00:39:30.898Z,2.43
2023-02-24T00:42:04.967Z,2.47
2023-02-24T00:44:33.155Z,2.51
2023-02-24T00:46:58.733Z,2.55
2023-02-24T00:49:30.603Z,2.59
2023-02-24T00:52:17.810Z,2.64
2023-02-24T00:54:53.844Z,2.68
2023-02-24T00:57:41.596Z,2.73
2023-02-24T01:00:29.126Z,2.78
2023-02-24T01:03:15.334Z,2.82
2023-02-24T01:05:40.951Z,2.85
2023-02-24T01:08:06.650Z,2.87
2023-02-24T01:10:37.180Z,2.90
2023-02-24T01:13:03.039Z,2.92
2023-02-24T01:15:49.264Z,2.95
2023-02-24T01:18:17.790Z,2.97
2023-02-24T01:20:59.475Z,3.00
2023-02-24T01:23:26.210Z,3.02
2023-02-24T01:25:58.412Z,3.03
2023-02-24T01:28:32.804Z,3.05
2023-02-24T01:31:03.608Z,3.07
2023-02-24T01:33:39.555Z,3.09
2023-02-24T01:36:17.139Z,3.11
2023-02-24T01:38:46.132Z,3.13
2023-02-24T01:41:14.274Z,3.14
2023-02-24T01:43:56.357Z,3.14
2023-02-24T01:46:23.672Z,3.15
2023-02-24T01:48:51.917Z,3.16
2023-02-24T01:51:18.168Z,3.16
2023-02-24T01:53:44.394Z,3.16
2023-02-24T01:56:21.223Z,3.16
2023-02-24T01:58:47.553Z,3.17
2023-02-24T02:01:21.302Z,3.19
2023-02-24T02:04:01.963Z,3.19
2023-02-24T02:06:48.335Z,3.18
2023-02-24T02:09:16.543Z,3.19
2023-02-24T02:11:49.855Z,3.19
2023-02-24T02:14:37.018Z,3.18
2023-02-24T02:17:09.604Z,3.19
2023-02-24T02:19:50.365Z,3.19
2023-02-24T02:22:36.745Z,3.19
2023-02-24T02:25:10.268Z,3.20
2023-02-24T02:27:45.509Z,3.21
2023-02-24T02:30:28.433Z,3.23
2023-02-24T02:33:08.915Z,3.23
2023-02-24T02:36:00.698Z,3.27
2023-02-24T02:38:31.040Z,3.30
2023-02-24T02:41:07.217Z,3.33
2023-02-24T02:43:58.114Z,3.36
2023-02-24T02:46:35.875Z,3.39
2023-02-24T02:49:04.187Z,3.42
2023-02-24T02:51:32.083Z,3.46
2023-02-24T02:54:05.043Z,3.51
2023-02-24T02:56:33.440Z,3.54
2023-02-24T02:59:00.892Z,3.57
2023-02-24T03:01:28.866Z,3.59
2023-02-24T03:03:59.077Z,3.62
2023-02-24T03:06:26.621Z,3.65
2023-02-24T03:08:56.030Z,3.68
2023-02-24T03:11:23.026Z,3.71
2023-02-24T03:13:51.146Z,3.75
2023-02-24T03:16:18.834Z,3.77
2023-02-24T03:18:46.076Z,3.81
2023-02-24T03:21:14.503Z,3.83
2023-02-24T03:23:45.579Z,3.85
2023-02-24T03:26:19.031Z,3.88
2023-02-24T03:28:54.220Z,3.94
2023-02-24T03:31:44.065Z,3.99
2023-02-24T03:34:12.493Z,4.03
2023-02-24T03:36:39.476Z,4.04
2023-02-24T03:39:06.709Z,4.07
2023-02-24T03:41:39.566Z,4.10
2023-02-24T03:44:06.363Z,4.13
2023-02-24T03:46:33.233Z,4.15
2023-02-24T03:49:04.463Z,4.18
2023-02-24T03:51:31.886Z,4.20
2023-02-24T03:54:03.930Z,4.24
2023-02-24T03:56:41.105Z,4.27
2023-02-24T03:59:15.331Z,4.30
2023-02-24T04:01:46.595Z,4.33
2023-02-24T04:04:17.415Z,4.35
2023-02-24T04:06:56.125Z,4.37
2023-02-24T04:09:27.720Z,4.40
2023-02-24T04:12:04.084Z,4.42
2023-02-24T04:14:32.424Z,4.43
2023-02-24T04:17:03.244Z,4.46
2023-02-24T04:19:32.362Z,4.47
2023-02-24T04:21:59.078Z,4.48
2023-02-24T04:24:27.789Z,4.49
2023-02-24T04:26:59.055Z,4.53
2023-02-24T04:29:37.467Z,4.54
2023-02-24T04:32:14.222Z,4.56
2023-02-24T04:34:41.742Z,4.58
2023-02-24T04:37:07.353Z,4.61
2023-02-24T04:39:33.773Z,4.64
2023-02-24T04:42:01.753Z,4.67
2023-02-24T04:44:28.331Z,4.69
2023-02-24T04:46:54.117Z,4.70
2023-02-24T04:49:22.912Z,4.71
2023-02-24T04:51:51.710Z,4.73
2023-02-24T04:54:37.942Z,4.75
2023-02-24T04:57:04.295Z,4.78
2023-02-24T04:59:29.858Z,4.80
2023-02-24T05:02:01.735Z,4.83
2023-02-24T05:04:27.523Z,4.86
2023-02-24T05:06:53.221Z,4.88
2023-02-24T05:09:21.463Z,4.90
2023-02-24T05:11:50.675Z,4.92
2023-02-24T05:14:17.859Z,4.93
2023-02-24T05:16:44.483Z,4.95
2023-02-24T05:19:24.208Z,4.97
2023-02-24T05:21:50.367Z,4.99
2023-02-24T05:24:17.433Z,5.00
2023-02-24T05:26:58.187Z,5.01
2023-02-24T05:29:24.615Z,5.01
2023-02-24T05:31:50.410Z,5.00
2023-02-24T05:34:27.347Z,5.02
2023-02-24T05:36:55.342Z,5.04
2023-02-24T05:39:25.404Z,5.05
2023-02-24T05:41:54.845Z,5.06
2023-02-24T05:44:24.078Z,5.08
2023-02-24T05:46:53.275Z,5.09
2023-02-24T05:49:23.828Z,5.10
2023-02-24T05:52:11.448Z,5.11
2023-02-24T05:54:49.835Z,5.14
2023-02-24T05:57:37.197Z,5.14
2023-02-24T06:00:15.390Z,5.14
2023-02-24T06:02:52.760Z,5.15
2023-02-24T06:05:39.823Z,5.16
2023-02-24T06:08:11.931Z,5.16
2023-02-24T06:10:58.112Z,5.18
2023-02-24T06:13:47.751Z,5.20
2023-02-24T06:16:15.480Z,5.21
2023-02-24T06:18:44.566Z,5.24
2023-02-24T06:21:30.155Z,5.26
2023-02-24T06:23:56.291Z,5.26
2023-02-24T06:26:21.779Z,5.28
2023-02-24T06:28:54.204Z,5.29
2023-02-24T06:31:21.816Z,5.30
2023-02-24T06:33:48.302Z,5.31
2023-02-24T06:36:14.798Z,5.32
2023-02-24T06:38:40.291Z,5.35
2023-02-24T06:41:11.068Z,5.39
2023-02-24T06:43:37.221Z,5.42
2023-02-24T06:46:06.206Z,5.45
2023-02-24T06:48:35.537Z,5.46
2023-02-24T06:51:05.130Z,5.50
2023-02-24T06:53:43.428Z,5.52
2023-02-24T06:56:15.125Z,5.54
2023-02-24T06:58:45.254Z,5.54
2023-02-24T07:01:12.202Z,5.55
2023-02-24T07:03:40.614Z,5.56
2023-02-24T07:06:20.556Z,5.57
2023-02-24T07:08:46.334Z,5.59
2023-02-24T07:11:14.069Z,5.61
2023-02-24T07:13:49.987Z,5.62
2023-02-24T07:16:19.220Z,5.63
2023-02-24T07:18:48.390Z,5.64
2023-02-24T07:21:18.151Z,5.65
2023-02-24T07:23:49.761Z,5.67
2023-02-24T07:26:20.235Z,5.68
2023-02-24T07:28:48.095Z,5.70
2023-02-24T07:31:15.457Z,5.72
2023-02-24T07:33:41.136Z,5.75
2023-02-24T07:36:09.650Z,5.76
2023-02-24T07:38:41.375Z,5.78
2023-02-24T07:41:08.249Z,5.81
2023-02-24T07:43:33.758Z,5.82
2023-02-24T07:45:59.368Z,5.84
2023-02-24T07:48:26.277Z,5.87
2023-02-24T07:50:53.060Z,5.92
2023-02-24T07:53:19.317Z,5.95
2023-02-24T07:55:46.515Z,5.98
2023-02-24T07:58:12.117Z,6.00
2023-02-24T08:00:58.011Z,6.01
2023-02-24T08:03:23.963Z,6.02
2023-02-24T08:05:49.469Z,6.03
2023-02-24T08:08:21.138Z,6.04
2023-02-24T08:10:47.569Z,6.05
2023-02-24T08:13:13.197Z,6.06
2023-02-24T08:15:38.755Z,6.06
2023-02-24T08:18:04.425Z,6.09
2023-02-24T08:20:36.277Z,6.10
2023-02-24T08:23:02.161Z,6.14
2023-02-24T08:25:36.066Z,6.18
2023-02-24T08:28:08.520Z,6.20
2023-02-24T08:30:38.952Z,6.23
2023-02-24T08:33:09.386Z,6.26
2023-02-24T08:35:36.231Z,6.26
2023-02-24T08:38:05.648Z,6.27
2023-02-24T08:40:50.334Z,6.26
2023-02-24T08:43:19.700Z,6.25
2023-02-24T08:45:46.471Z,6.25
2023-02-24T08:48:18.695Z,6.25
2023-02-24T08:50:45.799Z,6.24
2023-02-24T08:53:19.334Z,6.25
2023-02-24T08:55:45.449Z,6.26
2023-02-24T08:58:18.207Z,6.27
2023-02-24T09:00:54.808Z,6.28
2023-02-24T09:03:29.242Z,6.31
2023-02-24T09:05:57.092Z,6.33
2023-02-24T09:08:32.783Z,6.36
2023-02-24T09:10:59.651Z,6.37
2023-02-24T09:13:33.035Z,6.36
2023-02-24T09:15:59.212Z,6.34
2023-02-24T09:18:30.423Z,6.33
2023-02-24T09:21:16.245Z,6.33
2023-02-24T09:23:46.252Z,6.35
2023-02-24T09:26:14.107Z,6.38
2023-02-24T09:28:48.856Z,6.40
2023-02-24T09:31:17.112Z,6.41
2023-02-24T09:33:51.338Z,6.40
2023-02-24T09:36:20.545Z,6.39
2023-02-24T09:39:04.917Z,6.40
2023-02-24T09:43:30.541Z,6.44
2023-02-24T09:45:59.668Z,6.45
2023-02-24T09:48:30.735Z,6.47
2023-02-24T09:51:05.498Z,6.47
2023-02-24T09:53:41.274Z,6.47
2023-02-24T09:56:16.346Z,6.48
2023-02-24T09:58:48.112Z,6.48
2023-02-24T10:01:23.666Z,6.48
2023-02-24T10:03:53.564Z,6.48
2023-02-24T10:06:21.737Z,6.48
2023-02-24T10:08:51.975Z,6.49
2023-02-24T10:11:32.866Z,6.49
2023-02-24T10:14:03.477Z,6.48
2023-02-24T10:16:41.641Z,6.48
2023-02-24T10:19:23.818Z,6.47
2023-02-24T10:22:02.951Z,6.44
2023-02-24T10:24:34.662Z,6.42
2023-02-24T10:27:09.428Z,6.41
2023-02-24T10:29:51.116Z,6.38
2023-02-24T10:32:31.706Z,6.36
2023-02-24T10:35:51.530Z,6.36
2023-02-24T10:38:17.205Z,6.36
2023-02-24T10:40:56.872Z,6.38
2023-02-24T10:43:30.275Z,6.42
2023-02-24T10:46:06.382Z,6.43
2023-02-24T10:48:41.710Z,6.44
2023-02-24T10:51:19.380Z,6.44
2023-02-24T10:53:53.386Z,6.44
2023-02-24T10:56:41.775Z,6.42
2023-02-24T10:59:30.010Z,6.40
2023-02-24T11:02:01.339Z,6.38
2023-02-24T11:04:54.141Z,6.36
2023-02-24T11:07:25.627Z,6.33
2023-02-24T11:10:11.159Z,6.33
2023-02-24T11:13:08.013Z,6.32
2023-02-24T11:15:54.008Z,6.31
2023-02-24T11:18:23.376Z,6.32
2023-02-24T11:20:50.295Z,6.32
2023-02-24T11:23:17.916Z,6.34
2023-02-24T11:25:46.272Z,6.34
2023-02-24T11:28:18.642Z,6.34
2023-02-24T11:30:47.318Z,6.34
2023-02-24T11:33:27.860Z,6.33
2023-02-24T11:35:59.792Z,6.34
2023-02-24T11:38:30.965Z,6.35
2023-02-24T11:41:00.699Z,6.38
2023-02-24T11:43:28.806Z,6.40
2023-02-24T11:45:57.458Z,6.40
2023-02-24T11:48:25.618Z,6.46
2023-02-24T11:50:53.309Z,6.56
2023-02-24T11:53:26.501Z,6.69
2023-02-24T11:55:59.275Z,6.82
2023-02-24T11:58:26.732Z,6.92
2023-02-24T12:00:57.139Z,7.00
2023-02-24T12:03:29.467Z,7.06
2023-02-24T12:05:58.550Z,7.10
2023-02-24T12:08:27.545Z,7.15
2023-02-24T12:10:55.181Z,7.20
2023-02-24T12:13:25.003Z,7.22
2023-02-24T12:15:56.454Z,7.25
2023-02-24T12:18:25.514Z,7.34
2023-02-24T12:20:52.609Z,7.45
2023-02-24T12:23:24.357Z,7.49
2023-02-24T12:25:59.206Z,7.50
2023-02-24T12:28:30.578Z,7.47
2023-02-24T12:31:03.633Z,7.42
2023-02-24T12:33:35.239Z,7.43
2023-02-24T12:36:06.176Z,7.53
2023-02-24T12:38:41.311Z,7.66
2023-02-24T12:41:17.099Z,7.80
2023-02-24T12:43:47.133Z,7.94
2023-02-24T12:46:21.307Z,7.98
2023-02-24T12:48:53.891Z,7.96
2023-02-24T12:51:23.880Z,7.85
2023-02-24T12:53:55.649Z,7.81
2023-02-24T12:56:25.977Z,7.86
2023-02-24T12:58:53.992Z,7.94
2023-02-24T13:01:23.587Z,8.13
2023-02-24T13:03:57.661Z,8.24
2023-02-24T13:06:30.689Z,8.20
2023-02-24T13:09:01.110Z,8.06
2023-02-24T13:11:33.697Z,7.91
2023-02-24T13:14:05.522Z,7.80
2023-02-24T13:16:32.003Z,7.78
2023-02-24T13:19:07.015Z,7.80
2023-02-24T13:21:33.660Z,7.90
2023-02-24T13:24:00.827Z,7.96
2023-02-24T13:26:27.674Z,7.92
2023-02-24T13:29:00.513Z,7.89
2023-02-24T13:31:26.677Z,7.87
2023-02-24T13:33:53.134Z,7.79
2023-02-24T13:36:21.596Z,7.70
2023-02-24T13:38:48.339Z,7.64
2023-02-24T13:41:25.893Z,7.61
2023-02-24T13:43:59.837Z,7.58
2023-02-24T13:46:27.535Z,7.59
2023-02-24T13:49:00.982Z,7.62
2023-02-24T13:51:41.764Z,7.66
2023-02-24T13:54:16.531Z,7.73
2023-02-24T13:56:45.623Z,7.75
2023-02-24T13:59:21.375Z,7.72
2023-02-24T14:01:51.794Z,7.68
2023-02-24T14:04:22.562Z,7.65
2023-02-24T14:06:50.389Z,7.64
2023-02-24T14:09:17.765Z,7.63
2023-02-24T14:11:43.481Z,7.62
2023-02-24T14:14:18.199Z,7.65
2023-02-24T14:16:48.171Z,7.67
2023-02-24T14:19:16.495Z,7.68
2023-02-24T14:21:54.151Z,7.72
2023-02-24T14:24:20.577Z,7.76
2023-02-24T14:26:50.426Z,7.79
2023-02-24T14:29:18.227Z,7.78
2023-02-24T14:31:47.839Z,7.77
2023-02-24T14:34:19.498Z,7.76
2023-02-24T14:36:46.846Z,7.83
2023-02-24T14:39:16.112Z,7.88
2023-02-24T14:41:42.054Z,7.88
2023-02-24T14:44:12.019Z,7.85
2023-02-24T14:46:49.000Z,7.77
2023-02-24T14:49:24.375Z,7.65
2023-02-24T14:51:52.032Z,7.57
2023-02-24T14:54:21.618Z,7.53
2023-02-24T14:56:47.156Z,7.48
2023-02-24T14:59:18.446Z,7.42
2023-02-24T15:01:47.592Z,7.38
2023-02-24T15:04:14.809Z,7.34
2023-02-24T15:06:44.356Z,7.31
2023-02-24T15:09:14.344Z,7.26
2023-02-24T15:11:41.226Z,7.22
2023-02-24T15:14:08.948Z,7.17
2023-02-24T15:16:39.880Z,7.13
2023-02-24T15:19:05.582Z,7.07
2023-02-24T15:21:32.533Z,7.03
2023-02-24T15:24:01.919Z,7.02
2023-02-24T15:26:31.015Z,7.00
2023-02-24T15:29:01.427Z,6.96
2023-02-24T15:31:28.451Z,6.92
2023-02-24T15:33:56.727Z,6.87
2023-02-24T15:36:24.570Z,6.82
2023-02-24T15:38:52.797Z,6.77
2023-02-24T15:41:19.347Z,6.74
2023-02-24T15:43:50.701Z,6.70
2023-02-24T15:46:22.599Z,6.64
2023-02-24T15:48:49.061Z,6.61
2023-02-24T15:51:21.937Z,6.57
2023-02-24T15:53:47.769Z,6.54
2023-02-24T15:56:13.386Z,6.49
2023-02-24T15:58:39.531Z,6.47
2023-02-24T16:01:05.157Z,6.43
2023-02-24T16:03:32.775Z,6.39
2023-02-24T16:05:58.589Z,6.35
2023-02-24T16:08:24.609Z,6.30
2023-02-24T16:10:53.578Z,6.26
2023-02-24T16:13:21.651Z,6.20
2023-02-24T16:15:48.522Z,6.11
2023-02-24T16:18:20.884Z,6.02
2023-02-24T16:20:55.813Z,5.92
2023-02-24T16:23:24.200Z,5.83
2023-02-24T16:25:51.349Z,5.74
2023-02-24T16:28:19.219Z,5.66
2023-02-24T16:30:45.869Z,5.59
2023-02-24T16:33:13.240Z,5.51
2023-02-24T16:35:39.348Z,5.43
2023-02-24T16:38:05.264Z,5.37
2023-02-24T16:40:33.814Z,5.33
2023-02-24T16:42:59.661Z,5.28
2023-02-24T16:45:28.050Z,5.23
2023-02-24T16:47:54.282Z,5.20
2023-02-24T16:50:22.032Z,5.18
2023-02-24T16:52:51.846Z,5.17
2023-02-24T16:55:17.767Z,5.14
2023-02-24T16:57:44.144Z,5.11
2023-02-24T17:00:15.176Z,5.08
2023-02-24T17:02:41.242Z,5.00
2023-02-24T17:05:07.904Z,4.94
2023-02-24T17:07:39.390Z,4.90
2023-02-24T17:10:06.251Z,4.84
2023-02-24T17:12:31.922Z,4.79
2023-02-24T17:14:59.070Z,4.76
2023-02-24T17:17:24.870Z,4.74
2023-02-24T17:19:52.964Z,4.71
2023-02-24T17:22:19.191Z,4.68
2023-02-24T17:24:44.773Z,4.66
2023-02-24T17:27:10.550Z,4.63
2023-02-24T17:29:36.243Z,4.60
2023-02-24T17:32:01.968Z,4.56
2023-02-24T17:34:30.648Z,4.51
2023-02-24T17:37:05.550Z,4.46
2023-02-24T17:39:34.155Z,4.42
2023-02-24T17:41:59.882Z,4.40
2023-02-24T17:44:25.557Z,4.36
2023-02-24T17:46:52.320Z,4.31
2023-02-24T17:49:18.560Z,4.27
2023-02-24T17:51:44.099Z,4.22
2023-02-24T17:54:09.622Z,4.18
2023-02-24T17:56:35.390Z,4.17
2023-02-24T17:59:01.158Z,4.15
2023-02-24T18:01:27.292Z,4.14
2023-02-24T18:03:55.799Z,4.11
2023-02-24T18:06:34.419Z,4.10
2023-02-24T18:09:00.865Z,4.10
2023-02-24T18:11:26.727Z,4.09
2023-02-24T18:13:55.439Z,4.09
2023-02-24T18:16:21.680Z,4.08
2023-02-24T18:18:47.868Z,4.07
2023-02-24T18:21:13.814Z,4.06
2023-02-24T18:23:40.834Z,4.06
2023-02-24T18:26:10.801Z,4.06
2023-02-24T18:28:36.716Z,4.07
2023-02-24T18:31:10.658Z,4.04
2023-02-24T18:33:36.267Z,4.03
2023-02-24T18:36:02.397Z,4.02
2023-02-24T18:38:28.550Z,4.01
2023-02-24T18:41:02.935Z,4.01
2023-02-24T18:43:30.761Z,3.98
2023-02-24T18:45:59.676Z,3.95
2023-02-24T18:48:27.993Z,3.93
2023-02-24T18:50:54.688Z,3.89
2023-02-24T18:53:20.749Z,3.86
2023-02-24T18:55:46.669Z,3.84
2023-02-24T18:58:12.341Z,3.83
2023-02-24T19:00:37.812Z,3.82
2023-02-24T19:03:03.314Z,3.81
2023-02-24T19:05:38.014Z,3.77
2023-02-24T19:08:04.240Z,3.74
2023-02-24T19:10:30.146Z,3.71
2023-02-24T19:12:55.871Z,3.68
2023-02-24T19:15:24.668Z,3.62
2023-02-24T19:17:53.179Z,3.59
2023-02-24T19:20:21.982Z,3.54
2023-02-24T19:22:50.440Z,3.48
2023-02-24T19:25:17.134Z,3.43
2023-02-24T19:27:45.000Z,3.39
2023-02-24T19:30:31.927Z,3.34
2023-02-24T19:32:57.521Z,3.29
2023-02-24T19:35:23.347Z,3.24
2023-02-24T19:37:50.350Z,3.20
2023-02-24T19:40:17.636Z,3.14
2023-02-24T19:42:43.292Z,3.10
2023-02-24T19:45:12.136Z,3.04
2023-02-24T19:47:38.027Z,3.00
2023-02-24T19:50:03.688Z,2.98
2023-02-24T19:52:29.162Z,2.96
2023-02-24T19:54:58.139Z,2.95
2023-02-24T19:57:23.710Z,2.91
2023-02-24T19:59:51.927Z,2.88
2023-02-24T20:02:17.720Z,2.86
2023-02-24T20:04:45.038Z,2.83
2023-02-24T20:07:10.616Z,2.80
2023-02-24T20:09:36.743Z,2.78
2023-02-24T20:12:02.474Z,2.76
2023-02-24T20:14:31.319Z,2.75
2023-02-24T20:16:57.234Z,2.73
2023-02-24T20:19:25.972Z,2.71
2023-02-24T20:21:51.463Z,2.68
2023-02-24T20:24:28.605Z,2.66
2023-02-24T20:26:54.217Z,2.62
2023-02-24T20:29:21.227Z,2.62
2023-02-24T20:31:47.886Z,2.61
2023-02-24T20:34:14.592Z,2.61
2023-02-24T20:36:43.955Z,2.61
2023-02-24T20:39:12.468Z,2.59
2023-02-24T20:41:38.024Z,2.61
2023-02-24T20:44:03.811Z,2.62
2023-02-24T20:46:30.682Z,2.63
2023-02-24T20:48:58.524Z,2.63
2023-02-24T20:51:28.313Z,2.64
2023-02-24T20:53:58.053Z,2.66
2023-02-24T20:56:25.267Z,2.67
2023-02-24T20:58:51.540Z,2.67
2023-02-24T21:01:17.648Z,2.69
2023-02-24T21:03:43.263Z,2.71
2023-02-24T21:06:10.678Z,2.72
2023-02-24T21:08:36.611Z,2.74
2023-02-24T21:11:02.096Z,2.77
2023-02-24T21:13:30.489Z,2.79
2023-02-24T21:15:57.078Z,2.82
2023-02-24T21:18:25.087Z,2.85
2023-02-24T21:20:53.196Z,2.88
2023-02-24T21:23:19.150Z,2.91
2023-02-24T21:25:44.834Z,2.95
2023-02-24T21:28:12.762Z,2.99
2023-02-24T21:30:41.980Z,3.02
2023-02-24T21:33:07.787Z,3.07
2023-02-24T21:35:33.527Z,3.11
2023-02-24T21:38:02.507Z,3.14
2023-02-24T21:40:28.313Z,3.17
2023-02-24T21:42:53.939Z,3.20
2023-02-24T21:45:32.868Z,3.25
2023-02-24T21:47:58.432Z,3.28
2023-02-24T21:50:24.129Z,3.32
2023-02-24T21:52:50.003Z,3.35
2023-02-24T21:55:28.337Z,3.37
2023-02-24T21:57:54.119Z,3.38
2023-02-24T22:00:20.316Z,3.38
2023-02-24T22:02:45.924Z,3.38
2023-02-24T22:05:11.881Z,3.37
2023-02-24T22:07:38.481Z,3.35
2023-02-24T22:10:04.132Z,3.34
2023-02-24T22:12:29.868Z,3.32
2023-02-24T22:14:55.654Z,3.30
2023-02-24T22:17:21.279Z,3.30
2023-02-24T22:19:50.125Z,3.29
2023-02-24T22:22:15.585Z,3.30
2023-02-24T22:24:41.750Z,3.32
2023-02-24T22:27:07.529Z,3.33
2023-02-24T22:29:35.421Z,3.34
2023-02-24T22:32:01.203Z,3.36
2023-02-24T22:34:27.919Z,3.36
2023-02-24T22:36:53.770Z,3.36
2023-02-24T22:39:19.455Z,3.35
2023-02-24T22:41:46.988Z,3.35
2023-02-24T22:44:14.417Z,3.33
2023-02-24T22:46:40.370Z,3.32
2023-02-24T22:49:06.722Z,3.31
2023-02-24T22:51:32.646Z,3.31
2023-02-24T22:53:58.373Z,3.29
2023-02-24T22:56:25.921Z,3.28
2023-02-24T22:58:51.796Z,3.28
2023-02-24T23:01:23.550Z,3.28
2023-02-24T23:03:52.134Z,3.30
2023-02-24T23:06:18.739Z,3.32
2023-02-24T23:08:46.078Z,3.35
2023-02-24T23:11:13.579Z,3.37
2023-02-24T23:13:39.648Z,3.38
2023-02-24T23:16:06.623Z,3.40
2023-02-24T23:18:32.912Z,3.42
2023-02-24T23:21:03.294Z,3.44
2023-02-24T23:23:29.380Z,3.46
2023-02-24T23:25:55.201Z,3.48
2023-02-24T23:28:21.123Z,3.50
2023-02-24T23:30:46.767Z,3.50
2023-02-24T23:33:13.678Z,3.51
2023-02-24T23:35:40.905Z,3.54
2023-02-24T23:38:06.648Z,3.54
2023-02-24T23:40:44.418Z,3.53
2023-02-24T23:43:16.432Z,3.52
2023-02-24T23:45:43.178Z,3.52
2023-02-24T23:48:09.487Z,3.52
2023-02-24T23:50:37.559Z,3.52
2023-02-24T23:53:04.368Z,3.51
2023-02-24T23:55:30.801Z,3.52
2023-02-24T23:57:56.257Z,3.52
